createdAt,value
2018-07-13T00:00:10.701Z,8.75
2018-07-13T00:02:39.282Z,8.83
2018-07-13T00:05:07.778Z,9.10
2018-07-13T00:07:36.217Z,8.93
2018-07-13T00:10:04.743Z,8.15
2018-07-13T00:12:33.161Z,8.68
2018-07-13T00:15:09.955Z,8.78
2018-07-13T00:17:38.430Z,8.18
2018-07-13T00:20:07.448Z,7.33
2018-07-13T00:22:35.889Z,9.05
2018-07-13T00:25:04.808Z,9.68
2018-07-13T00:27:33.357Z,10.13
2018-07-13T00:30:01.858Z,9.33
2018-07-13T00:32:30.377Z,10.05
2018-07-13T00:34:58.841Z,11.75
2018-07-13T00:37:27.304Z,11.50
2018-07-13T00:39:55.946Z,12.63
2018-07-13T00:42:24.416Z,11.78
2018-07-13T00:44:52.880Z,12.93
2018-07-13T00:47:21.329Z,13.38
2018-07-13T00:49:50.017Z,13.48
2018-07-13T00:52:19.138Z,14.35
2018-07-13T00:54:47.609Z,14.63
2018-07-13T00:57:16.082Z,15.00
2018-07-13T00:59:45.068Z,15.03
2018-07-13T01:02:13.629Z,16.45
2018-07-13T01:04:42.047Z,15.53
2018-07-13T01:07:10.491Z,15.78
2018-07-13T01:09:38.936Z,17.67
2018-07-13T01:12:07.416Z,17.40
2018-07-13T01:14:35.924Z,17.00
2018-07-13T01:17:04.452Z,17.20
2018-07-13T01:19:32.929Z,15.95
2018-07-13T01:22:01.407Z,18.30
2018-07-13T01:24:30.523Z,18.62
2018-07-13T01:26:58.940Z,17.95
2018-07-13T01:29:27.364Z,18.77
2018-07-13T01:31:55.808Z,20.27
2018-07-13T01:34:24.321Z,19.73
2018-07-13T01:36:52.760Z,20.43
2018-07-13T01:39:21.149Z,21.45
2018-07-13T01:41:49.591Z,21.35
2018-07-13T01:44:18.617Z,21.07
2018-07-13T01:46:47.049Z,22.27
2018-07-13T01:49:15.491Z,22.52
2018-07-13T01:51:43.915Z,23.65
2018-07-13T01:54:12.372Z,25.17
2018-07-13T01:56:40.830Z,26.12
2018-07-13T01:59:09.506Z,26.40
2018-07-13T02:01:37.920Z,26.50
2018-07-13T02:04:06.370Z,27.20
2018-07-13T02:06:34.835Z,27.67
2018-07-13T02:09:03.487Z,27.48
2018-07-13T02:11:31.928Z,31.07
2018-07-13T02:14:00.366Z,31.68
2018-07-13T02:16:28.801Z,31.07
2018-07-13T02:18:57.276Z,30.72
2018-07-13T02:21:25.746Z,30.35
2018-07-13T02:23:54.149Z,30.68
2018-07-13T02:26:22.620Z,29.35
2018-07-13T02:28:51.064Z,25.40
2018-07-13T02:31:19.621Z,24.50
2018-07-13T02:33:48.072Z,25.72
2018-07-13T02:36:17.130Z,26.07
2018-07-13T02:38:45.620Z,25.95
2018-07-13T02:41:14.040Z,26.80
2018-07-13T02:43:42.471Z,26.35
2018-07-13T02:46:11.021Z,27.10
2018-07-13T02:48:39.433Z,27.15
2018-07-13T02:51:08.567Z,27.25
2018-07-13T02:53:36.993Z,27.75
2018-07-13T02:56:05.693Z,28.23
2018-07-13T02:58:34.137Z,26.33
2018-07-13T03:01:02.557Z,26.62
2018-07-13T03:03:31.033Z,27.10
2018-07-13T03:05:59.672Z,26.73
2018-07-13T03:08:28.108Z,25.65
2018-07-13T03:10:56.873Z,24.02
2018-07-13T03:13:25.326Z,22.37
2018-07-13T03:15:53.820Z,22.32
2018-07-13T03:18:22.395Z,23.27
2018-07-13T03:20:50.816Z,21.17
2018-07-13T03:23:19.298Z,21.45
2018-07-13T03:25:47.728Z,21.73
2018-07-13T03:28:16.885Z,22.17
2018-07-13T03:30:45.319Z,23.00
2018-07-13T03:33:13.965Z,22.70
2018-07-13T03:35:42.416Z,22.98
2018-07-13T03:38:10.941Z,25.08
2018-07-13T03:40:39.384Z,26.48
2018-07-13T03:43:08.415Z,27.17
2018-07-13T03:45:36.955Z,27.50
2018-07-13T03:48:05.379Z,28.62
2018-07-13T03:50:33.864Z,30.35
2018-07-13T03:53:02.268Z,30.55
2018-07-13T03:55:30.729Z,30.75
2018-07-13T03:57:59.168Z,28.90
2018-07-13T04:00:27.657Z,28.83
2018-07-13T04:02:56.120Z,28.57
2018-07-13T04:05:24.556Z,29.02
2018-07-13T04:07:53.105Z,27.02
2018-07-13T04:10:21.589Z,28.30
2018-07-13T04:12:50.044Z,26.33
2018-07-13T04:15:18.471Z,27.22
2018-07-13T04:17:46.914Z,26.52
2018-07-13T04:20:15.381Z,26.87
2018-07-13T04:22:43.869Z,24.77
2018-07-13T04:25:12.386Z,27.10
2018-07-13T04:27:40.979Z,25.60
2018-07-13T04:30:09.554Z,26.27
2018-07-13T04:32:38.009Z,26.05
2018-07-13T04:35:06.564Z,26.70
2018-07-13T04:37:35.014Z,26.87
2018-07-13T04:40:03.564Z,26.45
2018-07-13T04:42:32.065Z,26.42
2018-07-13T04:45:01.484Z,31.97
2018-07-13T04:47:29.982Z,35.25
2018-07-13T04:49:58.530Z,35.78
2018-07-13T04:52:26.979Z,37.17
2018-07-13T04:54:55.473Z,40.35
2018-07-13T04:57:24.001Z,42.35
2018-07-13T04:59:52.503Z,43.68
2018-07-13T05:02:20.989Z,46.88
2018-07-13T05:04:49.491Z,49.25
2018-07-13T05:07:17.917Z,51.48
2018-07-13T05:09:46.430Z,55.30
2018-07-13T05:12:14.993Z,55.43
2018-07-13T05:14:43.484Z,55.92
2018-07-13T05:17:11.953Z,57.90
2018-07-13T05:19:41.308Z,55.65
2018-07-13T05:22:09.781Z,56.30
2018-07-13T05:24:38.277Z,56.83
2018-07-13T05:27:06.805Z,55.38
2018-07-13T05:29:35.428Z,54.85
2018-07-13T05:32:03.957Z,55.28
2018-07-13T05:34:32.445Z,53.33
2018-07-13T05:37:00.929Z,53.55
2018-07-13T05:39:30.197Z,56.95
2018-07-13T05:41:58.754Z,57.30
2018-07-13T05:44:27.216Z,58.23
2018-07-13T05:46:55.963Z,54.67
2018-07-13T05:49:24.532Z,50.00
2018-07-13T05:51:53.046Z,48.80
2018-07-13T05:54:21.547Z,44.98
2018-07-13T05:56:50.599Z,40.75
2018-07-13T05:59:19.840Z,40.05
2018-07-13T06:01:48.337Z,38.50
2018-07-13T06:04:16.848Z,37.13
2018-07-13T06:06:45.734Z,32.90
2018-07-13T06:09:14.284Z,28.90
2018-07-13T06:11:43.641Z,26.35
2018-07-13T06:14:12.519Z,26.87
2018-07-13T06:16:40.964Z,23.55
2018-07-13T06:19:09.452Z,22.32
2018-07-13T06:21:37.909Z,20.40
2018-07-13T06:24:07.043Z,20.25
2018-07-13T06:26:35.469Z,19.65
2018-07-13T06:29:04.041Z,18.92
2018-07-13T06:31:32.626Z,18.65
2018-07-13T06:34:01.325Z,18.60
2018-07-13T06:36:29.854Z,19.23
2018-07-13T06:38:58.349Z,19.85
2018-07-13T06:41:27.001Z,19.65
2018-07-13T06:43:55.564Z,18.65
2018-07-13T06:46:24.033Z,19.77
2018-07-13T06:48:52.526Z,19.23
2018-07-13T06:51:20.988Z,19.92
2018-07-13T06:53:49.597Z,20.72
2018-07-13T06:56:18.021Z,20.50
2018-07-13T06:58:57.845Z,19.48
2018-07-13T07:01:26.397Z,19.90
2018-07-13T07:04:32.896Z,19.95
2018-07-13T07:07:06.017Z,17.87
2018-07-13T07:09:34.641Z,18.92
2018-07-13T07:13:13.564Z,17.85
2018-07-13T07:15:42.017Z,17.75
2018-07-13T07:18:12.382Z,18.30
2018-07-13T07:20:40.862Z,18.62
2018-07-13T07:23:09.334Z,19.02
2018-07-13T07:25:38.201Z,18.32
2018-07-13T07:28:06.687Z,18.77
2018-07-13T07:30:35.417Z,17.95
2018-07-13T07:33:04.319Z,19.62
2018-07-13T07:35:32.797Z,19.02
2018-07-13T07:38:01.386Z,19.02
2018-07-13T07:40:30.117Z,18.92
2018-07-13T07:42:58.656Z,18.40
2018-07-13T07:45:27.199Z,19.50
2018-07-13T07:47:56.326Z,19.10
2018-07-13T07:50:24.779Z,17.35
2018-07-13T07:52:53.601Z,18.40
2018-07-13T07:55:22.058Z,18.82
2018-07-13T07:57:50.513Z,17.77
2018-07-13T08:00:18.914Z,18.37
2018-07-13T08:02:47.417Z,17.67
2018-07-13T08:05:16.577Z,16.67
2018-07-13T08:07:45.045Z,17.82
2018-07-13T08:10:13.552Z,17.70
2018-07-13T08:12:42.032Z,17.85
2018-07-13T08:15:10.533Z,17.70
2018-07-13T08:17:38.948Z,17.05
2018-07-13T08:20:07.441Z,16.50
2018-07-13T08:22:39.749Z,16.52
2018-07-13T08:25:09.745Z,16.30
2018-07-13T08:27:42.461Z,16.17
2018-07-13T08:30:17.903Z,15.75
2018-07-13T08:32:47.097Z,15.80
2018-07-13T08:35:16.186Z,15.25
2018-07-13T08:37:44.763Z,15.15
2018-07-13T08:40:13.217Z,16.23
2018-07-13T08:42:42.136Z,16.82
2018-07-13T08:45:10.686Z,15.70
2018-07-13T08:47:39.165Z,15.43
2018-07-13T08:50:07.652Z,15.00
2018-07-13T08:52:36.294Z,15.45
2018-07-13T08:55:11.617Z,14.95
2018-07-13T08:57:40.927Z,15.63
2018-07-13T09:00:10.584Z,15.20
2018-07-13T09:02:39.958Z,15.78
2018-07-13T09:05:08.240Z,15.40
2018-07-13T09:07:37.131Z,16.17
2018-07-13T09:10:08.873Z,14.10
2018-07-13T09:12:37.532Z,14.93
2018-07-13T09:15:06.234Z,14.05
2018-07-13T09:17:34.755Z,14.60
2018-07-13T09:20:03.260Z,15.43
2018-07-13T09:22:31.823Z,15.05
2018-07-13T09:25:00.280Z,15.45
2018-07-13T09:27:28.844Z,15.53
2018-07-13T09:29:57.394Z,16.00
2018-07-13T09:32:25.809Z,15.35
2018-07-13T09:34:54.322Z,15.30
2018-07-13T09:37:22.931Z,15.65
2018-07-13T09:39:51.436Z,14.28
2018-07-13T09:42:19.996Z,14.83
2018-07-13T09:44:48.477Z,15.18
2018-07-13T09:47:17.745Z,14.35
2018-07-13T09:49:46.204Z,14.75
2018-07-13T09:52:14.826Z,13.85
2018-07-13T09:54:43.413Z,14.00
2018-07-13T09:57:11.999Z,13.40
2018-07-13T09:59:40.461Z,14.35
2018-07-13T10:02:09.720Z,14.60
2018-07-13T10:04:38.223Z,13.95
2018-07-13T10:07:07.158Z,14.50
2018-07-13T10:09:35.653Z,13.65
2018-07-13T10:12:04.805Z,14.00
2018-07-13T10:14:33.498Z,13.75
2018-07-13T10:17:02.837Z,13.45
2018-07-13T10:19:31.291Z,13.55
2018-07-13T10:21:59.966Z,13.00
2018-07-13T10:24:28.845Z,12.40
2018-07-13T10:26:57.413Z,13.00
2018-07-13T10:29:30.395Z,12.98
2018-07-13T10:31:58.941Z,12.65
2018-07-13T10:34:27.399Z,13.78
2018-07-13T10:37:02.742Z,13.85
2018-07-13T10:39:31.605Z,13.95
2018-07-13T10:42:00.147Z,12.95
2018-07-13T10:44:28.688Z,13.53
2018-07-13T10:46:57.792Z,14.00
2018-07-13T10:49:26.312Z,14.00
2018-07-13T10:51:54.777Z,13.13
2018-07-13T10:54:23.275Z,14.03
2018-07-13T10:56:51.744Z,13.78
2018-07-13T10:59:20.179Z,13.75
2018-07-13T11:01:48.657Z,14.13
2018-07-13T11:04:17.099Z,13.55
2018-07-13T11:06:46.299Z,13.62
2018-07-13T11:09:14.802Z,13.70
2018-07-13T11:11:43.350Z,14.83
2018-07-13T11:14:11.776Z,14.38
2018-07-13T11:16:40.786Z,13.48
2018-07-13T11:19:09.221Z,13.72
2018-07-13T11:21:37.695Z,13.68
2018-07-13T11:24:06.275Z,13.08
2018-07-13T11:26:34.705Z,12.65
2018-07-13T11:29:03.149Z,12.90
2018-07-13T11:31:31.722Z,12.65
2018-07-13T11:34:00.472Z,12.55
2018-07-13T11:36:29.764Z,11.85
2018-07-13T11:38:58.899Z,12.25
2018-07-13T11:41:27.466Z,12.63
2018-07-13T11:43:56.725Z,12.23
2018-07-13T11:46:25.131Z,11.93
2018-07-13T11:48:53.606Z,12.30
2018-07-13T11:51:22.037Z,11.88
2018-07-13T11:53:50.506Z,11.30
2018-07-13T11:56:19.001Z,11.48
2018-07-13T11:58:47.573Z,11.00
2018-07-13T12:01:15.993Z,11.22
2018-07-13T12:03:44.576Z,11.08
2018-07-13T12:06:13.127Z,10.88
2018-07-13T12:08:41.573Z,11.53
2018-07-13T12:11:10.017Z,11.80
2018-07-13T12:13:38.569Z,11.68
2018-07-13T12:16:07.578Z,10.82
2018-07-13T12:18:36.238Z,12.03
2018-07-13T12:21:04.724Z,12.70
2018-07-13T12:23:33.180Z,13.62
2018-07-13T12:26:01.647Z,12.35
2018-07-13T12:28:30.078Z,11.28
2018-07-13T12:30:58.581Z,11.90
2018-07-13T12:33:27.182Z,12.35
2018-07-13T12:35:59.693Z,12.50
2018-07-13T12:38:27.860Z,11.80
2018-07-13T12:40:56.323Z,11.30
2018-07-13T12:43:24.782Z,11.30
2018-07-13T12:45:53.241Z,11.10
2018-07-13T12:48:21.691Z,10.60
2018-07-13T12:50:50.177Z,10.65
2018-07-13T12:53:18.612Z,10.50
2018-07-13T12:55:48.410Z,10.23
2018-07-13T12:58:17.235Z,10.85
2018-07-13T13:00:45.697Z,10.75
2018-07-13T13:03:14.212Z,10.23
2018-07-13T13:05:42.662Z,10.13
2018-07-13T13:08:11.134Z,9.70
2018-07-13T13:10:42.472Z,9.43
2018-07-13T13:13:10.888Z,9.48
2018-07-13T13:15:39.311Z,9.70
2018-07-13T13:18:07.737Z,9.78
2018-07-13T13:20:36.178Z,9.50
2018-07-13T13:23:04.637Z,8.73
2018-07-13T13:25:33.075Z,8.45
2018-07-13T13:28:01.716Z,9.98
2018-07-13T13:30:30.502Z,8.98
2018-07-13T13:32:59.092Z,9.15
2018-07-13T13:35:27.734Z,9.35
2018-07-13T13:37:56.279Z,9.58
2018-07-13T13:40:24.779Z,9.75
2018-07-13T13:42:53.297Z,9.10
2018-07-13T13:45:21.747Z,9.23
2018-07-13T13:47:50.188Z,9.90
2018-07-13T13:50:18.669Z,10.32
2018-07-13T13:52:47.764Z,9.83
2018-07-13T13:55:17.357Z,9.08
2018-07-13T13:57:45.867Z,9.85
2018-07-13T14:00:14.355Z,9.35
2018-07-13T14:02:42.851Z,8.58
2018-07-13T14:05:11.392Z,9.00
2018-07-13T14:07:39.789Z,9.83
2018-07-13T14:10:08.452Z,10.82
2018-07-13T14:12:37.025Z,10.32
2018-07-13T14:15:06.203Z,11.00
2018-07-13T14:17:35.129Z,10.43
2018-07-13T14:20:03.880Z,10.23
2018-07-13T14:22:32.337Z,10.88
2018-07-13T14:25:00.846Z,10.10
2018-07-13T14:27:29.875Z,10.65
2018-07-13T14:29:58.393Z,10.28
2018-07-13T14:32:26.909Z,10.20
2018-07-13T14:36:38.147Z,9.65
2018-07-13T14:39:08.298Z,10.35
2018-07-13T14:41:36.841Z,10.40
2018-07-13T14:44:05.409Z,9.90
2018-07-13T14:46:34.076Z,9.63
2018-07-13T14:49:02.663Z,10.20
2018-07-13T14:51:31.096Z,9.03
2018-07-13T14:53:59.866Z,8.28
2018-07-13T14:56:28.372Z,7.87
2018-07-13T14:58:57.416Z,8.13
2018-07-13T15:01:25.960Z,8.15
2018-07-13T15:03:54.943Z,7.45
2018-07-13T15:06:23.966Z,7.50
2018-07-13T15:08:52.330Z,7.08
2018-07-13T15:11:20.752Z,6.95
2018-07-13T15:13:49.210Z,6.30
2018-07-13T15:16:17.840Z,6.42
2018-07-13T15:18:46.321Z,8.03
2018-07-13T15:21:14.768Z,6.80
2018-07-13T15:23:43.190Z,5.92
2018-07-13T15:26:11.665Z,6.30
2018-07-13T15:28:40.172Z,6.70
2018-07-13T15:31:08.733Z,6.80
2018-07-13T15:33:37.209Z,6.33
2018-07-13T15:36:05.694Z,6.08
2018-07-13T15:38:34.157Z,5.97
2018-07-13T15:41:02.625Z,5.40
2018-07-13T15:43:31.622Z,5.72
2018-07-13T15:46:00.094Z,5.65
2018-07-13T15:48:28.524Z,5.65
2018-07-13T15:50:56.969Z,5.83
2018-07-13T15:53:25.418Z,6.30
2018-07-13T15:55:57.054Z,5.55
2018-07-13T15:58:25.943Z,5.67
2018-07-13T16:00:54.777Z,5.12
2018-07-13T16:03:23.280Z,5.05
2018-07-13T16:05:51.808Z,5.53
2018-07-13T16:08:20.537Z,6.42
2018-07-13T16:10:49.240Z,6.35
2018-07-13T16:13:17.628Z,5.37
2018-07-13T16:15:46.128Z,6.37
2018-07-13T16:18:14.544Z,5.50
2018-07-13T16:20:43.005Z,6.33
2018-07-13T16:23:11.480Z,5.70
2018-07-13T16:25:40.010Z,4.65
2018-07-13T16:28:08.529Z,4.40
2018-07-13T16:30:37.024Z,4.30
2018-07-13T16:33:05.985Z,4.22
2018-07-13T16:35:34.452Z,4.17
2018-07-13T16:38:03.023Z,4.20
2018-07-13T16:40:31.487Z,3.72
2018-07-13T16:42:59.967Z,4.72
2018-07-13T16:45:28.413Z,3.92
2018-07-13T16:47:56.915Z,4.05
2018-07-13T16:50:25.411Z,4.08
2018-07-13T16:52:54.485Z,6.53
2018-07-13T16:55:23.100Z,4.50
2018-07-13T16:57:51.693Z,4.35
2018-07-13T17:00:20.125Z,4.22
2018-07-13T17:02:48.588Z,4.33
2018-07-13T17:05:17.032Z,4.05
2018-07-13T17:07:45.470Z,4.42
2018-07-13T17:10:14.590Z,3.75
2018-07-13T17:12:43.070Z,4.17
2018-07-13T17:15:11.625Z,3.52
2018-07-13T17:17:40.072Z,4.80
2018-07-13T17:20:08.592Z,4.40
2018-07-13T17:22:37.177Z,4.60
2018-07-13T17:25:06.084Z,6.10
2018-07-13T17:27:34.505Z,3.60
2018-07-13T17:30:03.066Z,4.00
2018-07-13T17:32:31.599Z,3.75
2018-07-13T17:35:00.068Z,4.22
2018-07-13T17:37:28.559Z,3.85
2018-07-13T17:39:57.000Z,4.00
2018-07-13T17:42:25.612Z,4.42
2018-07-13T17:44:54.086Z,7.15
2018-07-13T17:47:22.601Z,4.25
2018-07-13T17:49:51.116Z,4.08
2018-07-13T17:52:20.200Z,4.20
2018-07-13T17:54:48.741Z,4.05
2018-07-13T17:57:17.228Z,4.70
2018-07-13T17:59:46.275Z,4.80
2018-07-13T18:02:14.688Z,4.20
2018-07-13T18:04:43.199Z,4.53
2018-07-13T18:07:11.638Z,4.20
2018-07-13T18:09:40.098Z,4.12
2018-07-13T18:12:08.666Z,4.50
2018-07-13T18:14:37.369Z,4.00
2018-07-13T18:17:05.960Z,4.12
2018-07-13T18:19:34.451Z,4.60
2018-07-13T18:22:02.971Z,4.20
2018-07-13T18:24:31.444Z,3.75
2018-07-13T18:27:00.503Z,3.30
2018-07-13T18:29:29.016Z,4.25
2018-07-13T18:31:57.514Z,4.33
2018-07-13T18:34:25.978Z,4.40
2018-07-13T18:36:54.117Z,7.97
2018-07-13T18:39:22.780Z,10.60
2018-07-13T18:41:51.353Z,4.08
2018-07-13T18:44:19.800Z,3.85
2018-07-13T18:46:48.930Z,4.20
2018-07-13T18:49:17.414Z,4.40
2018-07-13T18:51:46.267Z,4.35
2018-07-13T18:54:15.402Z,4.47
2018-07-13T18:56:43.833Z,4.67
2018-07-13T18:59:12.357Z,5.67
2018-07-13T19:01:40.828Z,5.47
2018-07-13T19:04:09.393Z,6.42
2018-07-13T19:06:37.582Z,5.45
2018-07-13T19:09:07.532Z,6.15
2018-07-13T19:11:36.399Z,6.12
2018-07-13T19:14:04.885Z,7.53
2018-07-13T19:16:33.465Z,5.35
2018-07-13T19:19:02.363Z,5.40
2018-07-13T19:21:31.247Z,5.83
2018-07-13T19:23:59.819Z,5.20
2018-07-13T19:26:28.504Z,5.83
2018-07-13T19:28:57.893Z,5.22
2018-07-13T19:31:26.427Z,5.22
2018-07-13T19:33:55.061Z,5.83
2018-07-13T19:36:23.532Z,5.85
2018-07-13T19:38:52.570Z,6.22
2018-07-13T19:41:21.729Z,6.03
2018-07-13T19:43:50.234Z,6.00
2018-07-13T19:46:18.935Z,5.90
2018-07-13T19:48:48.912Z,5.75
2018-07-13T19:51:17.595Z,7.83
2018-07-13T19:53:46.205Z,7.70
2018-07-13T19:56:14.754Z,9.50
2018-07-13T19:58:43.236Z,7.30
2018-07-13T20:01:13.136Z,7.17
2018-07-13T20:03:42.247Z,6.80
2018-07-13T20:06:10.851Z,6.42
2018-07-13T20:08:39.627Z,5.97
2018-07-13T20:11:09.103Z,6.85
2018-07-13T20:13:38.174Z,6.50
2018-07-13T20:16:07.375Z,8.03
2018-07-13T20:18:36.340Z,8.53
2018-07-13T20:21:04.833Z,7.53
2018-07-13T20:23:33.594Z,8.48
2018-07-13T20:26:02.124Z,6.78
2018-07-13T20:28:31.003Z,6.72
2018-07-13T20:31:00.586Z,7.00
2018-07-13T20:33:29.449Z,7.00
2018-07-13T20:35:58.521Z,6.85
2018-07-13T20:38:27.052Z,6.53
2018-07-13T20:40:55.488Z,6.40
2018-07-13T20:43:24.513Z,7.67
2018-07-13T20:45:53.085Z,7.22
2018-07-13T20:48:21.598Z,7.50
2018-07-13T20:50:50.779Z,8.40
2018-07-13T20:53:20.350Z,8.55
2018-07-13T20:55:48.964Z,8.08
2018-07-13T20:58:17.461Z,8.50
2018-07-13T21:00:46.185Z,8.23
2018-07-13T21:03:15.362Z,8.60
2018-07-13T21:05:43.857Z,8.55
2018-07-13T21:08:12.885Z,8.03
2018-07-13T21:10:45.225Z,8.78
2018-07-13T21:13:13.688Z,8.50
2018-07-13T21:15:42.108Z,8.08
2018-07-13T21:18:10.717Z,8.80
2018-07-13T21:20:39.370Z,8.98
2018-07-13T21:23:07.842Z,8.80
2018-07-13T21:25:36.340Z,8.50
2018-07-13T21:28:05.276Z,9.33
2018-07-13T21:30:33.797Z,9.38
2018-07-13T21:33:02.339Z,8.45
2018-07-13T21:35:30.914Z,8.80
2018-07-13T21:37:59.504Z,8.90
2018-07-13T21:40:27.948Z,9.33
2018-07-13T21:42:56.420Z,10.90
2018-07-13T21:45:24.970Z,11.88
2018-07-13T21:47:53.440Z,12.70
2018-07-13T21:50:21.895Z,12.63
2018-07-13T21:52:50.368Z,12.88
2018-07-13T21:55:18.836Z,13.75
2018-07-13T21:57:47.285Z,12.37
2018-07-13T22:00:15.877Z,11.15
2018-07-13T22:02:44.389Z,10.50
2018-07-13T22:05:12.874Z,9.43
2018-07-13T22:07:41.298Z,9.10
2018-07-13T22:10:09.809Z,8.70
2018-07-13T22:12:38.240Z,8.35
2018-07-13T22:15:06.918Z,7.25
2018-07-13T22:17:35.413Z,7.45
2018-07-13T22:20:04.024Z,7.37
2018-07-13T22:22:33.069Z,7.70
2018-07-13T22:25:01.536Z,7.17
2018-07-13T22:27:30.009Z,7.17
2018-07-13T22:29:58.497Z,7.35
2018-07-13T22:32:26.971Z,7.70
2018-07-13T22:34:55.429Z,7.33
2018-07-13T22:37:24.059Z,7.85
2018-07-13T22:39:52.548Z,7.50
2018-07-13T22:42:20.977Z,8.30
2018-07-13T22:44:49.405Z,7.60
2018-07-13T22:47:17.868Z,7.40
2018-07-13T22:49:46.366Z,7.22
2018-07-13T22:52:14.834Z,7.87
2018-07-13T22:54:43.349Z,7.45
2018-07-13T22:57:11.813Z,8.10
2018-07-13T22:59:40.304Z,8.30
2018-07-13T23:02:08.733Z,8.05
2018-07-13T23:04:37.203Z,8.10
2018-07-13T23:07:05.732Z,8.93
2018-07-13T23:09:34.185Z,7.75
2018-07-13T23:12:02.636Z,7.87
2018-07-13T23:14:31.670Z,7.65
2018-07-13T23:17:00.600Z,7.72
2018-07-13T23:19:29.057Z,8.08
2018-07-13T23:21:57.864Z,7.83
2018-07-13T23:24:26.270Z,7.65
2018-07-13T23:26:54.740Z,7.80
2018-07-13T23:29:23.342Z,8.33
2018-07-13T23:31:51.844Z,7.05
2018-07-13T23:34:20.389Z,7.65
2018-07-13T23:36:48.832Z,7.15
2018-07-13T23:39:17.360Z,7.00
2018-07-13T23:41:45.870Z,7.67
2018-07-13T23:44:14.330Z,6.80
2018-07-13T23:46:42.761Z,7.30
2018-07-13T23:49:11.313Z,6.90
2018-07-13T23:51:39.725Z,7.00
2018-07-13T23:54:08.301Z,7.15
2018-07-13T23:56:36.733Z,6.65
2018-07-13T23:59:05.208Z,6.90
